sensor_id;sensor_type;location;lat;lon;timestamp;P1;durP1;ratioP1;P2;durP2;ratioP2
39308;SDS011;26019;47.510;19.122;2022-11-15T00:05:35;57.30;;;26.95;;
39308;SDS011;26019;47.510;19.122;2022-11-15T00:15:37;49.70;;;26.60;;
39308;SDS011;26019;47.510;19.122;2022-11-15T00:25:41;50.77;;;26.13;;
39308;SDS011;26019;47.510;19.122;2022-11-15T00:35:44;46.63;;;25.33;;
39308;SDS011;26019;47.510;19.122;2022-11-15T00:45:46;45.72;;;25.52;;
39308;SDS011;26019;47.510;19.122;2022-11-15T00:55:48;49.25;;;27.30;;
39308;SDS011;26019;47.510;19.122;2022-11-15T01:05:52;49.67;;;26.67;;
39308;SDS011;26019;47.510;19.122;2022-11-15T01:15:53;50.15;;;27.23;;
39308;SDS011;26019;47.510;19.122;2022-11-15T01:25:58;48.33;;;26.55;;
39308;SDS011;26019;47.510;19.122;2022-11-15T01:36:05;43.90;;;23.88;;
39308;SDS011;26019;47.510;19.122;2022-11-15T01:56:35;43.58;;;24.50;;
39308;SDS011;26019;47.510;19.122;2022-11-15T02:06:42;43.17;;;24.35;;
39308;SDS011;26019;47.510;19.122;2022-11-15T02:47:57;44.60;;;24.15;;
39308;SDS011;26019;47.510;19.122;2022-11-15T03:08:37;37.55;;;21.00;;
39308;SDS011;26019;47.510;19.122;2022-11-15T03:18:52;40.10;;;22.40;;
39308;SDS011;26019;47.510;19.122;2022-11-15T03:29:01;46.83;;;24.52;;
39308;SDS011;26019;47.510;19.122;2022-11-15T03:39:13;48.78;;;25.20;;
39308;SDS011;26019;47.510;19.122;2022-11-15T03:49:34;50.87;;;24.13;;
39308;SDS011;26019;47.510;19.122;2022-11-15T03:59:37;51.47;;;26.60;;
39308;SDS011;26019;47.510;19.122;2022-11-15T04:09:41;45.30;;;24.88;;
39308;SDS011;26019;47.510;19.122;2022-11-15T04:20:04;42.47;;;23.17;;
39308;SDS011;26019;47.510;19.122;2022-11-15T04:30:26;41.92;;;23.17;;
39308;SDS011;26019;47.510;19.122;2022-11-15T04:40:28;42.72;;;23.83;;
39308;SDS011;26019;47.510;19.122;2022-11-15T04:50:29;41.08;;;22.95;;
39308;SDS011;26019;47.510;19.122;2022-11-15T05:00:32;42.38;;;22.67;;
39308;SDS011;26019;47.510;19.122;2022-11-15T05:10:33;43.53;;;22.98;;
39308;SDS011;26019;47.510;19.122;2022-11-15T05:20:36;40.33;;;22.70;;
39308;SDS011;26019;47.510;19.122;2022-11-15T05:30:38;39.63;;;22.00;;
39308;SDS011;26019;47.510;19.122;2022-11-15T05:40:41;43.80;;;23.77;;
39308;SDS011;26019;47.510;19.122;2022-11-15T05:50:43;39.75;;;21.90;;
39308;SDS011;26019;47.510;19.122;2022-11-15T06:00:47;41.15;;;22.33;;
39308;SDS011;26019;47.510;19.122;2022-11-15T06:10:51;37.20;;;22.55;;
39308;SDS011;26019;47.510;19.122;2022-11-15T06:30:55;36.28;;;21.35;;
39308;SDS011;26019;47.510;19.122;2022-11-15T06:41:05;42.25;;;25.13;;
39308;SDS011;26019;47.510;19.122;2022-11-15T06:51:10;36.55;;;23.23;;
39308;SDS011;26019;47.510;19.122;2022-11-15T07:01:12;37.22;;;24.48;;
39308;SDS011;26019;47.510;19.122;2022-11-15T07:11:15;42.15;;;24.33;;
39308;SDS011;26019;47.510;19.122;2022-11-15T07:21:17;42.80;;;26.20;;
39308;SDS011;26019;47.510;19.122;2022-11-15T07:31:22;38.75;;;25.02;;
39308;SDS011;26019;47.510;19.122;2022-11-15T07:41:25;44.10;;;26.05;;
39308;SDS011;26019;47.510;19.122;2022-11-15T07:51:27;37.42;;;25.20;;
39308;SDS011;26019;47.510;19.122;2022-11-15T08:01:29;41.55;;;27.38;;
39308;SDS011;26019;47.510;19.122;2022-11-15T08:11:31;46.78;;;29.55;;
39308;SDS011;26019;47.510;19.122;2022-11-15T08:31:42;42.15;;;26.15;;
39308;SDS011;26019;47.510;19.122;2022-11-15T08:41:44;44.60;;;28.87;;
39308;SDS011;26019;47.510;19.122;2022-11-15T08:51:46;44.47;;;28.15;;
39308;SDS011;26019;47.510;19.122;2022-11-15T09:01:48;51.00;;;30.48;;
39308;SDS011;26019;47.510;19.122;2022-11-15T09:11:51;47.53;;;29.83;;
39308;SDS011;26019;47.510;19.122;2022-11-15T09:21:58;49.72;;;30.90;;
39308;SDS011;26019;47.510;19.122;2022-11-15T09:32:00;42.15;;;29.10;;
39308;SDS011;26019;47.510;19.122;2022-11-15T09:52:15;45.27;;;28.13;;
39308;SDS011;26019;47.510;19.122;2022-11-15T10:12:24;45.58;;;30.13;;
39308;SDS011;26019;47.510;19.122;2022-11-15T10:22:35;49.88;;;29.80;;
39308;SDS011;26019;47.510;19.122;2022-11-15T10:32:45;52.42;;;32.75;;
39308;SDS011;26019;47.510;19.122;2022-11-15T11:03:34;53.22;;;33.45;;
39308;SDS011;26019;47.510;19.122;2022-11-15T11:13:39;49.53;;;30.98;;
39308;SDS011;26019;47.510;19.122;2022-11-15T11:23:58;49.65;;;32.35;;
39308;SDS011;26019;47.510;19.122;2022-11-15T11:45:10;39.97;;;27.08;;
39308;SDS011;26019;47.510;19.122;2022-11-15T11:55:35;44.05;;;26.98;;
39308;SDS011;26019;47.510;19.122;2022-11-15T12:16:27;49.40;;;31.55;;
39308;SDS011;26019;47.510;19.122;2022-11-15T12:26:33;57.90;;;36.47;;
39308;SDS011;26019;47.510;19.122;2022-11-15T12:36:43;59.20;;;36.33;;
39308;SDS011;26019;47.510;19.122;2022-11-15T13:07:07;63.17;;;38.15;;
39308;SDS011;26019;47.510;19.122;2022-11-15T13:17:56;68.60;;;41.80;;
39308;SDS011;26019;47.510;19.122;2022-11-15T13:27:59;66.63;;;39.13;;
39308;SDS011;26019;47.510;19.122;2022-11-15T13:38:17;55.80;;;33.38;;
39308;SDS011;26019;47.510;19.122;2022-11-15T13:48:25;53.35;;;33.42;;
39308;SDS011;26019;47.510;19.122;2022-11-15T13:58:32;51.63;;;31.92;;
39308;SDS011;26019;47.510;19.122;2022-11-15T14:08:35;53.60;;;32.10;;
39308;SDS011;26019;47.510;19.122;2022-11-15T14:18:43;52.72;;;32.35;;
39308;SDS011;26019;47.510;19.122;2022-11-15T14:28:53;57.58;;;35.25;;
39308;SDS011;26019;47.510;19.122;2022-11-15T14:38:55;55.47;;;35.08;;
39308;SDS011;26019;47.510;19.122;2022-11-15T14:48:57;55.50;;;33.28;;
39308;SDS011;26019;47.510;19.122;2022-11-15T14:59:13;52.53;;;32.42;;
39308;SDS011;26019;47.510;19.122;2022-11-15T15:09:15;50.78;;;30.40;;
39308;SDS011;26019;47.510;19.122;2022-11-15T15:19:17;48.95;;;30.60;;
39308;SDS011;26019;47.510;19.122;2022-11-15T15:29:20;49.08;;;30.13;;
39308;SDS011;26019;47.510;19.122;2022-11-15T15:39:21;47.17;;;28.37;;
39308;SDS011;26019;47.510;19.122;2022-11-15T15:49:23;44.17;;;27.88;;
39308;SDS011;26019;47.510;19.122;2022-11-15T15:59:25;44.22;;;27.08;;
39308;SDS011;26019;47.510;19.122;2022-11-15T16:09:27;46.42;;;27.73;;
39308;SDS011;26019;47.510;19.122;2022-11-15T16:20:01;50.95;;;28.77;;
39308;SDS011;26019;47.510;19.122;2022-11-15T16:30:04;53.05;;;31.60;;
39308;SDS011;26019;47.510;19.122;2022-11-15T16:50:33;68.10;;;35.03;;
39308;SDS011;26019;47.510;19.122;2022-11-15T17:00:42;68.47;;;34.70;;
39308;SDS011;26019;47.510;19.122;2022-11-15T17:10:46;69.28;;;36.13;;
39308;SDS011;26019;47.510;19.122;2022-11-15T17:20:47;83.17;;;41.10;;
39308;SDS011;26019;47.510;19.122;2022-11-15T17:30:49;85.57;;;39.67;;
39308;SDS011;26019;47.510;19.122;2022-11-15T17:41:01;82.07;;;39.90;;
39308;SDS011;26019;47.510;19.122;2022-11-15T17:51:09;83.53;;;41.05;;
39308;SDS011;26019;47.510;19.122;2022-11-15T18:01:17;82.20;;;38.58;;
39308;SDS011;26019;47.510;19.122;2022-11-15T18:11:23;103.38;;;46.08;;
39308;SDS011;26019;47.510;19.122;2022-11-15T18:21:27;100.82;;;43.97;;
39308;SDS011;26019;47.510;19.122;2022-11-15T18:31:31;95.78;;;45.55;;
39308;SDS011;26019;47.510;19.122;2022-11-15T18:41:34;92.05;;;41.03;;
39308;SDS011;26019;47.510;19.122;2022-11-15T18:51:38;109.77;;;46.10;;
39308;SDS011;26019;47.510;19.122;2022-11-15T19:01:43;103.72;;;44.92;;
39308;SDS011;26019;47.510;19.122;2022-11-15T19:11:49;102.28;;;43.92;;
39308;SDS011;26019;47.510;19.122;2022-11-15T19:21:53;105.77;;;46.57;;
39308;SDS011;26019;47.510;19.122;2022-11-15T19:31:55;111.83;;;46.63;;
39308;SDS011;26019;47.510;19.122;2022-11-15T19:41:57;116.80;;;45.90;;
39308;SDS011;26019;47.510;19.122;2022-11-15T19:51:59;125.68;;;49.08;;
39308;SDS011;26019;47.510;19.122;2022-11-15T20:02:01;111.63;;;42.92;;
39308;SDS011;26019;47.510;19.122;2022-11-15T20:12:11;115.38;;;47.03;;
39308;SDS011;26019;47.510;19.122;2022-11-15T20:22:15;111.47;;;45.13;;
39308;SDS011;26019;47.510;19.122;2022-11-15T20:32:18;103.38;;;42.08;;
39308;SDS011;26019;47.510;19.122;2022-11-15T20:42:22;105.65;;;43.25;;
39308;SDS011;26019;47.510;19.122;2022-11-15T20:52:23;107.38;;;44.15;;
39308;SDS011;26019;47.510;19.122;2022-11-15T21:02:29;103.80;;;42.17;;
39308;SDS011;26019;47.510;19.122;2022-11-15T21:12:36;111.43;;;41.67;;
39308;SDS011;26019;47.510;19.122;2022-11-15T21:22:39;116.72;;;44.55;;
39308;SDS011;26019;47.510;19.122;2022-11-15T21:32:43;113.90;;;46.85;;
39308;SDS011;26019;47.510;19.122;2022-11-15T21:42:46;123.65;;;47.33;;
39308;SDS011;26019;47.510;19.122;2022-11-15T21:52:51;106.45;;;44.25;;
39308;SDS011;26019;47.510;19.122;2022-11-15T22:02:53;104.30;;;42.53;;
39308;SDS011;26019;47.510;19.122;2022-11-15T22:12:55;105.18;;;42.00;;
39308;SDS011;26019;47.510;19.122;2022-11-15T22:22:58;114.10;;;46.17;;
39308;SDS011;26019;47.510;19.122;2022-11-15T22:33:00;112.68;;;44.65;;
39308;SDS011;26019;47.510;19.122;2022-11-15T22:43:03;116.22;;;46.35;;
39308;SDS011;26019;47.510;19.122;2022-11-15T22:53:07;129.47;;;46.83;;
39308;SDS011;26019;47.510;19.122;2022-11-15T23:03:10;106.25;;;41.78;;
39308;SDS011;26019;47.510;19.122;2022-11-15T23:13:12;124.13;;;45.20;;
39308;SDS011;26019;47.510;19.122;2022-11-15T23:23:17;115.97;;;42.88;;
39308;SDS011;26019;47.510;19.122;2022-11-15T23:33:19;114.07;;;42.67;;
39308;SDS011;26019;47.510;19.122;2022-11-15T23:43:41;122.43;;;40.65;;
39308;SDS011;26019;47.510;19.122;2022-11-15T23:53:44;122.17;;;43.93;;
